Time;durP1;ratioP1;P1;durP2;ratioP2;P2;SDS_P1;SDS_P2;PMS_P1;PMS_P2;Temp;Humidity;BMP_temperature;BMP_pressure;BME280_temperature;BME280_humidity;BME280_pressure;Samples;Min_cycle;Max_cycle;Signal;HPM_P1;HPM_P2
2022/12/23 00:01:24;;;;;;;24.52;12.95;;;;;;;11.29;91.68;100092.38;3616080;39;20075;-65
2022/12/23 00:03:50;;;;;;;20.80;13.38;;;;;;;11.29;92.09;100093.25;3611677;39;20120;-65
2022/12/23 00:06:19;;;;;;;21.15;13.60;;;;;;;11.27;92.17;100089.81;3613323;39;20115;-65
2022/12/23 00:08:45;;;;;;;28.02;15.25;;;;;;;11.30;92.13;100099.50;3612126;39;20134;-64
2022/12/23 00:11:20;;;;;;;27.15;17.10;;;;;;;11.25;92.05;100097.13;3609958;39;20066;-64
2022/12/23 00:16:30;;;;;;;24.73;16.10;;;;;;;11.22;91.99;100089.28;3611262;39;20163;-64
2022/12/23 00:18:56;;;;;;;24.35;17.13;;;;;;;11.27;92.18;100100.56;3612427;39;20055;-64
2022/12/23 00:21:22;;;;;;;26.17;17.05;;;;;;;11.29;92.46;100103.13;3609917;39;20061;-64
2022/12/23 00:23:50;;;;;;;24.98;17.00;;;;;;;11.34;92.13;100112.59;3608870;39;20070;-64
2022/12/23 00:26:26;;;;;;;27.88;18.58;;;;;;;11.26;92.02;100095.28;3609970;39;20387;-64
2022/12/23 00:28:56;;;;;;;28.55;18.77;;;;;;;11.33;91.51;100112.72;3611425;39;21460;-64
2022/12/23 00:31:23;;;;;;;31.30;18.20;;;;;;;11.34;91.73;100117.97;3611634;39;20059;-65
2022/12/23 00:33:52;;;;;;;30.58;20.15;;;;;;;11.34;91.52;100115.28;3608071;39;20398;-64
2022/12/23 00:36:23;;;;;;;27.67;18.83;;;;;;;11.36;91.91;100121.41;3613550;39;20058;-64
2022/12/23 00:44:20;;;;;;;30.15;17.50;;;;;;;11.26;91.45;100115.00;3610650;39;20116;-64
2022/12/23 00:46:45;;;;;;;27.08;18.05;;;;;;;11.36;91.05;100144.78;3611561;39;20058;-64
2022/12/23 00:52:00;;;;;;;28.27;17.27;;;;;;;11.34;91.22;100139.50;3611788;39;20477;-65
2022/12/23 00:54:27;;;;;;;33.70;18.85;;;;;;;11.33;91.17;100140.47;3606564;39;20059;-65
2022/12/23 00:56:52;;;;;;;28.35;18.20;;;;;;;11.36;91.33;100153.69;3610926;39;20047;-65
2022/12/23 00:59:18;;;;;;;30.65;19.40;;;;;;;11.37;91.12;100155.41;3610888;39;20355;-65
2022/12/23 01:07:12;;;;;;;28.98;20.73;;;;;;;11.36;91.24;100161.78;3611356;39;20069;-64
2022/12/23 01:09:38;;;;;;;30.20;19.45;;;;;;;11.37;90.82;100157.25;3614790;39;20293;-65
2022/12/23 01:12:04;;;;;;;29.48;20.98;;;;;;;11.36;90.81;100164.47;3609518;39;20393;-65
2022/12/23 01:14:30;;;;;;;30.08;19.60;;;;;;;11.37;90.84;100158.09;3612075;39;20055;-64
2022/12/23 01:16:55;;;;;;;31.48;21.30;;;;;;;11.33;90.81;100148.53;3606833;39;21991;-64
2022/12/23 01:19:21;;;;;;;30.35;22.30;;;;;;;11.39;90.58;100158.00;3608013;39;20478;-64
2022/12/23 01:21:46;;;;;;;31.55;21.23;;;;;;;11.35;90.44;100152.00;3610290;39;20058;-64
2022/12/23 01:24:12;;;;;;;30.45;20.42;;;;;;;11.38;90.72;100159.84;3596584;39;20063;-65
2022/12/23 01:26:38;;;;;;;31.08;20.50;;;;;;;11.36;90.35;100156.38;3610136;39;20397;-65
2022/12/23 01:29:03;;;;;;;32.13;21.45;;;;;;;11.38;90.74;100159.84;3606581;39;20054;-66
2022/12/23 01:31:29;;;;;;;33.78;22.73;;;;;;;11.38;90.66;100157.13;3611724;39;20285;-65
2022/12/23 01:33:55;;;;;;;34.10;22.58;;;;;;;11.36;90.32;100164.47;3607561;39;20130;-65
2022/12/23 01:36:21;;;;;;;33.83;24.20;;;;;;;11.12;90.73;100121.41;3607292;39;20058;-65
2022/12/23 01:38:47;;;;;;;33.38;23.90;;;;;;;11.36;90.73;100175.22;3611996;39;20082;-65
2022/12/23 01:44:54;;;;;;;34.05;22.80;;;;;;;11.32;91.30;100172.84;3608743;39;20062;-65
2022/12/23 01:47:31;;;;;;;35.15;24.70;;;;;;;11.29;91.20;100173.97;3609314;39;20057;-65
2022/12/23 01:50:06;;;;;;;36.45;25.98;;;;;;;11.29;91.56;100173.97;3598837;39;20119;-65
2022/12/23 01:52:43;;;;;;;35.40;25.08;;;;;;;11.24;91.39;100167.22;3610576;39;20093;-66
2022/12/23 01:55:13;;;;;;;35.63;23.92;;;;;;;11.28;91.30;100174.06;3610822;39;20511;-66
2022/12/23 01:57:43;;;;;;;35.75;24.58;;;;;;;11.28;91.53;100187.53;3611097;39;20064;-66
2022/12/23 02:05:43;;;;;;;31.98;24.63;;;;;;;11.21;91.75;100197.88;3609414;39;20119;-65
2022/12/23 02:11:40;;;;;;;30.55;23.48;;;;;;;11.22;92.14;100199.59;3608968;39;20399;-64
2022/12/23 02:18:07;;;;;;;30.65;23.02;;;;;;;11.22;92.13;100202.28;3611176;39;20050;-64
2022/12/23 02:21:22;;;;;;;27.45;22.83;;;;;;;11.24;91.68;100208.44;3606743;39;20132;-64
2022/12/23 02:24:02;;;;;;;28.90;23.73;;;;;;;11.22;91.73;100196.91;3608752;39;20074;-64
2022/12/23 02:27:01;;;;;;;27.20;23.60;;;;;;;11.24;92.11;100207.56;3608689;39;20047;-64
2022/12/23 02:30:00;;;;;;;28.27;22.95;;;;;;;11.23;91.72;100209.41;3609862;39;20047;-64
2022/12/23 02:32:41;;;;;;;27.33;22.13;;;;;;;11.23;92.20;100212.09;3602969;39;20047;-64
2022/12/23 02:35:26;;;;;;;30.05;22.40;;;;;;;11.24;91.74;100224.56;3608537;39;20063;-65
2022/12/23 02:38:03;;;;;;;27.83;22.42;;;;;;;11.25;92.24;100225.41;3607581;39;20051;-65
2022/12/23 02:40:57;;;;;;;26.70;22.13;;;;;;;11.26;92.36;100233.41;3606573;39;20063;-64
2022/12/23 02:43:50;;;;;;;30.23;21.58;;;;;;;11.24;92.11;100246.09;3581867;39;20091;-64
2022/12/23 02:46:59;;;;;;;26.37;20.13;;;;;;;11.25;91.56;100269.31;3615043;39;20478;-64
2022/12/23 02:49:36;;;;;;;29.60;21.90;;;;;;;11.26;91.65;100270.19;3609623;39;20139;-65
2022/12/23 02:52:11;;;;;;;24.25;19.45;;;;;;;11.17;91.77;100250.22;3609508;39;20144;-65
2022/12/23 02:54:51;;;;;;;29.85;21.77;;;;;;;11.23;91.71;100260.53;3613622;39;20086;-65
2022/12/23 02:57:27;;;;;;;24.48;19.55;;;;;;;11.26;91.60;100271.06;3612185;39;20132;-65
2022/12/23 02:59:56;;;;;;;24.20;19.58;;;;;;;11.26;91.61;100263.00;3610958;39;20053;-65
2022/12/23 03:02:22;;;;;;;25.02;19.42;;;;;;;11.24;91.95;100261.38;3608349;39;20326;-65
2022/12/23 03:04:47;;;;;;;25.58;19.92;;;;;;;11.24;91.46;100262.22;3612033;39;20085;-65
2022/12/23 03:07:31;;;;;;;22.58;18.67;;;;;;;11.27;91.72;100266.53;3609164;39;20608;-65
2022/12/23 03:10:29;;;;;;;26.48;20.33;;;;;;;11.08;91.58;100243.69;3610559;39;20267;-64
2022/12/23 03:13:08;;;;;;;25.33;19.75;;;;;;;11.23;91.56;100276.66;3607427;39;20389;-64
2022/12/23 03:15:48;;;;;;;24.35;19.55;;;;;;;11.23;91.86;100276.66;3608627;39;20321;-64
2022/12/23 03:18:55;;;;;;;23.70;18.90;;;;;;;11.24;91.45;100272.16;3611175;39;20047;-65
2022/12/23 03:21:39;;;;;;;25.20;18.98;;;;;;;11.23;91.91;100270.44;3607799;39;20057;-64
2022/12/23 03:24:42;;;;;;;24.50;18.25;;;;;;;11.25;91.65;100273.84;3608805;39;20102;-64
2022/12/23 03:27:41;;;;;;;27.52;19.40;;;;;;;11.25;91.56;100263.09;3610649;39;20059;-65
2022/12/23 03:30:15;;;;;;;25.15;19.17;;;;;;;11.25;91.28;100261.25;3608773;39;20305;-64
2022/12/23 03:33:05;;;;;;;26.48;19.27;;;;;;;11.22;91.90;100258.78;3608890;39;20058;-64
2022/12/23 03:35:55;;;;;;;27.27;20.48;;;;;;;11.18;91.22;100254.63;3609100;39;20081;-64
2022/12/23 03:38:23;;;;;;;26.10;19.05;;;;;;;11.23;91.33;100262.38;3609411;39;20124;-64
2022/12/23 03:41:01;;;;;;;28.63;19.27;;;;;;;11.23;91.68;100265.06;3610326;39;20050;-64
2022/12/23 03:43:38;;;;;;;28.27;19.17;;;;;;;11.22;91.37;100268.69;3611354;39;20051;-66
2022/12/23 03:46:16;;;;;;;25.45;19.27;;;;;;;11.20;91.47;100255.38;3609651;39;20282;-64
2022/12/23 03:48:53;;;;;;;27.17;19.45;;;;;;;11.21;91.39;100251.69;3609622;39;20063;-64
2022/12/23 03:51:30;;;;;;;24.70;19.40;;;;;;;11.21;91.54;100262.47;3609381;39;20050;-64
2022/12/23 03:54:09;;;;;;;27.27;19.15;;;;;;;11.20;91.44;100265.28;3609628;39;20111;-64
2022/12/23 03:56:50;;;;;;;25.98;20.10;;;;;;;11.19;91.16;100268.91;3611679;39;20053;-63
2022/12/23 03:59:26;;;;;;;27.90;19.80;;;;;;;11.20;91.26;100265.28;3609330;39;20058;-67
2022/12/23 04:02:15;;;;;;;28.48;19.00;;;;;;;11.16;90.93;100267.31;3608485;39;20341;-65
2022/12/23 04:05:18;;;;;;;32.10;21.88;;;;;;;11.16;90.89;100270.00;3608844;39;20046;-64
2022/12/23 04:08:06;;;;;;;30.30;20.73;;;;;;;11.17;91.45;100268.19;3608348;39;20067;-64
2022/12/23 04:10:33;;;;;;;32.08;21.17;;;;;;;11.10;90.88;100273.13;3609742;39;20067;-64
2022/12/23 04:12:59;;;;;;;30.77;20.58;;;;;;;11.18;91.45;100278.81;3610857;39;20055;-65
2022/12/23 04:15:27;;;;;;;32.55;21.70;;;;;;;11.21;90.55;100288.50;3609132;39;20065;-65
2022/12/23 04:17:55;;;;;;;31.48;21.48;;;;;;;11.16;90.68;100288.81;3610121;39;20063;-67
2022/12/23 04:20:22;;;;;;;31.52;22.08;;;;;;;11.14;90.60;100294.34;3608143;39;20421;-66
2022/12/23 04:22:48;;;;;;;33.10;21.92;;;;;;;11.12;90.55;100292.72;3608018;39;20221;-65
2022/12/23 04:25:16;;;;;;;29.08;21.70;;;;;;;11.09;91.15;100301.88;3608583;39;20308;-65
2022/12/23 04:27:43;;;;;;;33.10;22.10;;;;;;;11.07;91.41;100302.97;3610661;39;20329;-65
2022/12/23 04:30:12;;;;;;;31.27;21.73;;;;;;;11.07;91.55;100308.34;3605707;39;20055;-65
2022/12/23 04:32:38;;;;;;;32.00;22.70;;;;;;;11.06;91.37;100312.00;3610944;39;20051;-65
2022/12/23 04:35:04;;;;;;;32.72;22.10;;;;;;;11.03;91.89;100318.44;3608663;39;20169;-65
2022/12/23 04:37:30;;;;;;;30.15;21.50;;;;;;;11.06;91.43;100322.75;3609944;39;20051;-65
2022/12/23 04:39:55;;;;;;;28.48;21.02;;;;;;;11.03;91.61;100317.59;3607904;39;20055;-65
2022/12/23 04:42:22;;;;;;;29.20;21.45;;;;;;;10.80;91.66;100273.53;3609325;39;20042;-64
2022/12/23 04:44:48;;;;;;;31.75;20.98;;;;;;;11.02;91.60;100308.66;3610704;39;20301;-64
2022/12/23 04:47:14;;;;;;;28.13;21.38;;;;;;;11.03;91.82;100306.84;3608953;39;20043;-64
2022/12/23 04:49:39;;;;;;;29.13;20.55;;;;;;;11.04;91.54;100303.19;3607864;39;20054;-64
2022/12/23 04:52:05;;;;;;;29.95;21.13;;;;;;;11.04;91.91;100305.88;3609465;39;20074;-65
2022/12/23 04:54:31;;;;;;;32.00;20.50;;;;;;;10.99;91.55;100289.22;3609870;39;20077;-64
2022/12/23 04:56:56;;;;;;;32.30;21.27;;;;;;;11.03;91.53;100296.06;3608835;39;20062;-65
2022/12/23 04:59:22;;;;;;;30.33;21.83;;;;;;;11.02;91.32;100295.22;3610383;39;20227;-64
2022/12/23 05:01:48;;;;;;;32.58;21.17;;;;;;;11.03;91.54;100293.38;3609845;39;20054;-65
2022/12/23 05:04:14;;;;;;;32.85;20.40;;;;;;;11.03;91.48;100291.56;3609063;39;20051;-66
2022/12/23 05:06:39;;;;;;;30.00;20.30;;;;;;;11.03;91.58;100282.63;3610135;39;20103;-65
2022/12/23 05:09:05;;;;;;;30.95;21.27;;;;;;;11.03;91.93;100282.63;3611589;39;20291;-65
2022/12/23 05:11:31;;;;;;;30.27;21.80;;;;;;;11.05;91.88;100284.25;3613607;39;20050;-64
2022/12/23 05:13:57;;;;;;;30.23;21.02;;;;;;;11.04;91.41;100293.28;3608462;39;20069;-65
2022/12/23 05:16:23;;;;;;;30.92;20.83;;;;;;;11.04;91.51;100287.91;3611963;39;20054;-65
2022/12/23 05:18:48;;;;;;;28.67;20.75;;;;;;;11.04;92.05;100297.81;3610462;39;20081;-64
2022/12/23 05:21:14;;;;;;;33.67;20.92;;;;;;;11.05;92.08;100307.59;3603911;39;20373;-64
2022/12/23 05:23:40;;;;;;;27.88;21.52;;;;;;;11.04;91.46;100314.81;3607334;39;20083;-64
2022/12/23 05:26:06;;;;;;;28.52;20.73;;;;;;;11.05;91.75;100315.66;3607797;39;20059;-64
2022/12/23 05:28:32;;;;;;;30.33;20.73;;;;;;;11.06;91.62;100328.13;3607837;39;20438;-64
2022/12/23 05:31:04;;;;;;;27.83;21.60;;;;;;;10.93;91.68;100310.19;3607215;39;20099;-63
2022/12/23 05:33:31;;;;;;;32.28;21.52;;;;;;;11.01;91.96;100322.25;3607809;39;20051;-63
2022/12/23 05:35:56;;;;;;;33.13;21.30;;;;;;;11.07;91.39;100341.50;3606923;39;20326;-65
2022/12/23 05:38:23;;;;;;;31.50;22.50;;;;;;;10.95;91.49;100320.84;3607890;39;20062;-65
2022/12/23 05:40:49;;;;;;;30.77;20.52;;;;;;;11.06;91.78;100342.44;3607509;39;20071;-64
2022/12/23 05:43:16;;;;;;;29.92;20.88;;;;;;;11.06;91.70;100339.75;3608718;39;20330;-64
2022/12/23 05:45:42;;;;;;;29.35;21.48;;;;;;;11.08;91.65;100347.72;3608201;39;20059;-64
2022/12/23 05:48:07;;;;;;;32.38;21.00;;;;;;;11.06;91.42;100346.97;3606474;39;20767;-64
2022/12/23 05:50:34;;;;;;;29.23;21.80;;;;;;;10.98;90.91;100330.53;3607268;39;20070;-64
2022/12/23 05:53:00;;;;;;;31.40;22.08;;;;;;;11.07;91.49;100337.94;3605625;39;20121;-64
2022/12/23 05:55:26;;;;;;;33.67;24.25;;;;;;;11.03;91.35;100328.34;3607359;39;20059;-62
2022/12/23 05:57:52;;;;;;;32.60;23.58;;;;;;;11.07;91.75;100327.19;3605460;39;20058;-62
2022/12/23 06:00:18;;;;;;;34.83;25.77;;;;;;;11.08;91.64;100320.81;3607236;39;20059;-62
2022/12/23 06:02:45;;;;;;;34.42;26.05;;;;;;;11.08;91.13;100315.44;3608161;39;20059;-62
2022/12/23 06:05:12;;;;;;;35.05;26.98;;;;;;;11.07;91.17;100319.13;3607733;39;20398;-64
2022/12/23 06:07:39;;;;;;;36.47;26.48;;;;;;;11.08;91.26;100318.13;3608130;39;20089;-65
2022/12/23 06:10:07;;;;;;;38.15;26.38;;;;;;;11.05;90.90;100307.59;3598459;39;20071;-62
2022/12/23 06:12:33;;;;;;;38.38;28.08;;;;;;;11.06;91.21;100306.63;3607147;39;20116;-63
2022/12/23 06:14:59;;;;;;;39.75;27.85;;;;;;;11.06;90.72;100303.91;3606236;39;20056;-62
2022/12/23 06:17:24;;;;;;;39.88;28.20;;;;;;;10.95;90.90;100282.34;3598762;39;20054;-65
2022/12/23 06:19:50;;;;;;;40.30;27.70;;;;;;;11.00;90.95;100290.91;3608557;39;20051;-62
2022/12/23 06:22:16;;;;;;;36.92;27.00;;;;;;;11.02;90.54;100284.47;3609958;39;20324;-63
2022/12/23 06:24:43;;;;;;;40.40;29.05;;;;;;;11.05;90.66;100304.91;3608915;39;20572;-62
2022/12/23 06:27:09;;;;;;;40.40;28.00;;;;;;;11.05;90.99;100300.38;3609935;39;20375;-62
2022/12/23 06:29:35;;;;;;;39.05;28.35;;;;;;;11.04;90.76;100298.66;3608580;39;20055;-70
2022/12/23 06:32:01;;;;;;;40.92;29.65;;;;;;;11.04;90.82;100297.81;3609233;39;20047;-63
2022/12/23 06:34:26;;;;;;;43.15;30.48;;;;;;;10.59;90.88;100238.28;3609669;39;20062;-64
2022/12/23 06:36:52;;;;;;;43.28;29.17;;;;;;;11.05;90.71;100307.59;3610189;39;20082;-65
2022/12/23 06:39:18;;;;;;;43.83;28.80;;;;;;;11.01;90.85;100303.41;3608668;39;20093;-63
2022/12/23 06:41:44;;;;;;;44.72;30.25;;;;;;;11.05;90.69;100312.97;3610321;39;20059;-65
2022/12/23 06:44:10;;;;;;;44.03;29.52;;;;;;;11.06;91.00;100317.38;3611270;39;20099;-64
2022/12/23 06:46:36;;;;;;;40.47;28.40;;;;;;;11.05;90.57;100316.50;3610479;39;20061;-64
2022/12/23 06:49:02;;;;;;;40.03;28.92;;;;;;;11.05;90.26;100329.09;3609049;39;20062;-63
2022/12/23 06:51:27;;;;;;;40.22;29.02;;;;;;;11.05;90.30;100334.50;3611880;39;20149;-64
2022/12/23 06:53:53;;;;;;;41.90;29.90;;;;;;;11.03;90.20;100333.72;3609722;39;20074;-65
2022/12/23 06:56:19;;;;;;;47.58;29.25;;;;;;;11.03;90.53;100339.09;3608263;39;20123;-65
2022/12/23 06:58:44;;;;;;;43.60;30.15;;;;;;;11.03;90.92;100352.56;3608332;39;20081;-63
2022/12/23 07:01:10;;;;;;;42.00;30.42;;;;;;;11.03;90.68;100358.78;3610392;39;20054;-63
2022/12/23 07:03:36;;;;;;;46.70;31.42;;;;;;;11.06;90.40;100365.78;3605197;39;20051;-63
2022/12/23 07:06:01;;;;;;;44.30;31.40;;;;;;;11.06;90.36;100371.16;3608072;39;20050;-64
2022/12/23 07:08:27;;;;;;;44.45;30.63;;;;;;;11.06;90.15;100381.94;3603886;39;20058;-63
2022/12/23 07:11:02;;;;;;;49.92;31.38;;;;;;;11.04;90.67;100383.88;3608729;39;20539;-63
2022/12/23 07:13:28;;;;;;;43.60;29.85;;;;;;;11.02;90.37;100372.34;3606289;39;20411;-64
2022/12/23 07:15:54;;;;;;;41.50;29.40;;;;;;;11.02;90.90;100359.78;3607606;39;20066;-64
2022/12/23 07:18:24;;;;;;;47.40;30.10;;;;;;;10.73;90.46;100310.75;3609136;39;20059;-63
2022/12/23 07:20:51;;;;;;;46.35;29.67;;;;;;;10.94;90.41;100343.31;3607482;39;20056;-62
2022/12/23 07:23:18;;;;;;;44.83;29.05;;;;;;;10.99;90.88;100351.91;3609304;39;20055;-65
2022/12/23 07:25:43;;;;;;;45.53;29.83;;;;;;;10.99;90.42;100351.91;3606861;39;20051;-63
2022/12/23 07:28:09;;;;;;;46.97;30.67;;;;;;;10.96;90.64;100343.22;3605821;39;20197;-64
2022/12/23 07:30:35;;;;;;;50.80;31.08;;;;;;;10.99;90.53;100351.06;3608931;39;20059;-62
2022/12/23 07:33:01;;;;;;;44.30;29.45;;;;;;;10.98;90.67;100358.28;3604959;39;20129;-64
2022/12/23 07:35:27;;;;;;;53.75;33.00;;;;;;;10.93;91.01;100345.13;3609667;39;20066;-64
2022/12/23 07:37:55;;;;;;;52.70;30.98;;;;;;;10.98;90.71;100349.34;3607944;39;20127;-65
2022/12/23 07:40:22;;;;;;;46.97;30.30;;;;;;;10.97;90.67;100347.63;3605887;39;20316;-62
2022/12/23 07:42:52;;;;;;;49.03;31.95;;;;;;;10.98;90.96;100346.66;3608078;39;20067;-62
2022/12/23 07:45:18;;;;;;;52.83;31.55;;;;;;;10.98;90.85;100352.03;3609776;39;20054;-65
2022/12/23 07:47:44;;;;;;;49.90;31.63;;;;;;;10.99;90.30;100343.00;3608797;39;20054;-64
2022/12/23 07:50:10;;;;;;;52.67;30.40;;;;;;;10.99;90.41;100343.00;3607204;39;20050;-64
2022/12/23 07:52:36;;;;;;;45.97;29.10;;;;;;;11.00;90.81;100344.69;3604208;39;20051;-64
2022/12/23 07:55:03;;;;;;;48.35;30.45;;;;;;;10.97;90.26;100350.31;3607441;39;20054;-64
2022/12/23 07:57:28;;;;;;;50.42;30.50;;;;;;;10.97;90.56;100353.84;3607846;39;20074;-64
2022/12/23 07:59:54;;;;;;;46.30;29.75;;;;;;;10.98;90.83;100338.59;3606792;39;20054;-65
2022/12/23 08:02:23;;;;;;;48.80;28.95;;;;;;;10.95;90.19;100354.94;3609439;39;20098;-65
2022/12/23 08:04:49;;;;;;;51.13;30.27;;;;;;;10.93;90.72;100350.53;3606677;39;20055;-65
2022/12/23 08:07:14;;;;;;;45.67;29.85;;;;;;;10.91;90.19;100340.88;3607428;39;20406;-65
2022/12/23 08:09:40;;;;;;;45.25;27.65;;;;;;;10.92;90.87;100327.28;3608510;39;20778;-64
2022/12/23 08:12:06;;;;;;;44.58;27.08;;;;;;;10.92;90.52;100324.59;3607826;39;20062;-64
2022/12/23 08:14:31;;;;;;;51.72;29.25;;;;;;;10.81;90.90;100310.19;3609413;39;20054;-64
2022/12/23 08:16:57;;;;;;;45.90;27.60;;;;;;;10.92;90.06;100326.44;3604905;39;20058;-63
2022/12/23 08:19:23;;;;;;;45.25;28.30;;;;;;;10.92;90.95;100329.13;3610005;39;20050;-64
2022/12/23 08:21:48;;;;;;;42.28;26.67;;;;;;;10.95;90.69;100325.38;3608293;39;20062;-65
2022/12/23 08:24:14;;;;;;;37.35;24.05;;;;;;;10.95;90.67;100333.44;3607706;39;20051;-65
2022/12/23 08:26:39;;;;;;;41.22;24.67;;;;;;;10.94;90.15;100346.00;3606206;39;20792;-65
2022/12/23 08:29:05;;;;;;;38.78;23.80;;;;;;;10.93;90.58;100344.28;3607776;39;20073;-64
2022/12/23 08:31:31;;;;;;;38.90;23.98;;;;;;;10.95;90.63;100339.66;3607967;39;20051;-65
2022/12/23 08:33:59;;;;;;;36.15;22.08;;;;;;;10.93;90.12;100329.00;3605053;39;20066;-63
2022/12/23 08:36:30;;;;;;;38.30;23.30;;;;;;;10.91;89.99;100330.97;3607895;39;20124;-65
2022/12/23 08:38:59;;;;;;;36.05;21.13;;;;;;;10.90;89.94;100334.59;3604444;39;20051;-65
2022/12/23 08:41:29;;;;;;;31.63;20.98;;;;;;;10.88;90.46;100331.19;3607095;39;20549;-65
2022/12/23 08:43:56;;;;;;;32.42;20.80;;;;;;;10.88;90.15;100320.44;3608463;39;20214;-64
2022/12/23 08:46:23;;;;;;;35.67;21.10;;;;;;;10.88;89.80;100317.75;3605603;39;20066;-65
2022/12/23 08:48:49;;;;;;;39.40;20.95;;;;;;;10.69;90.15;100282.38;3607794;39;20398;-65
2022/12/23 08:51:18;;;;;;;36.90;22.30;;;;;;;10.86;90.50;100306.22;3608203;39;20151;-65
2022/12/23 08:53:46;;;;;;;32.10;21.65;;;;;;;10.86;90.29;100308.91;3606113;39;20059;-65
2022/12/23 08:56:17;;;;;;;28.92;19.40;;;;;;;10.85;90.38;100304.50;3606896;39;20059;-64
2022/12/23 08:58:46;;;;;;;37.63;20.23;;;;;;;10.87;90.34;100312.44;3608507;39;20173;-64
2022/12/23 09:01:15;;;;;;;34.45;20.10;;;;;;;10.84;90.58;100302.78;3608464;39;20055;-64
2022/12/23 09:03:43;;;;;;;34.25;19.95;;;;;;;10.88;90.61;100298.06;3608217;39;20047;-65
2022/12/23 09:06:19;;;;;;;29.58;19.63;;;;;;;10.87;90.19;100290.94;3604358;39;20548;-65
2022/12/23 09:08:46;;;;;;;27.98;18.75;;;;;;;10.88;90.46;100279.25;3606817;39;20067;-65
2022/12/23 09:11:19;;;;;;;27.95;18.45;;;;;;;10.88;90.14;100276.53;3608403;39;20059;-64
2022/12/23 09:13:46;;;;;;;28.88;17.77;;;;;;;10.86;90.28;100263.19;3606905;39;20354;-64
2022/12/23 09:16:13;;;;;;;27.27;16.88;;;;;;;10.86;90.33;100267.72;3607550;39;20059;-65
2022/12/23 09:18:40;;;;;;;30.55;17.73;;;;;;;10.85;90.11;100264.19;3608164;39;20051;-64
2022/12/23 09:21:14;;;;;;;29.77;16.75;;;;;;;10.73;89.95;100245.38;3609058;39;20257;-64
2022/12/23 09:23:40;;;;;;;25.63;15.55;;;;;;;10.84;90.43;100249.00;3607161;39;20389;-64
2022/12/23 09:26:09;;;;;;;24.52;14.77;;;;;;;10.86;90.03;100255.13;3608263;39;20796;-64
2022/12/23 09:28:36;;;;;;;22.52;13.90;;;;;;;10.86;90.32;100247.06;3607328;39;20067;-64
2022/12/23 09:31:11;;;;;;;26.33;13.70;;;;;;;10.88;89.97;100250.50;3609833;39;20763;-65
2022/12/23 09:33:37;;;;;;;24.73;14.52;;;;;;;10.89;90.24;100254.91;3608720;39;20235;-64
2022/12/23 09:36:04;;;;;;;30.65;14.63;;;;;;;10.89;89.69;100254.06;3607399;39;20055;-64
2022/12/23 09:38:31;;;;;;;26.05;14.60;;;;;;;10.82;89.91;100232.13;3609749;39;20127;-64
2022/12/23 09:41:27;;;;;;;24.75;14.07;;;;;;;10.85;89.68;100245.34;3607945;39;20051;-64
2022/12/23 09:44:11;;;;;;;21.55;13.18;;;;;;;10.87;90.35;100242.53;3605311;39;20504;-64
2022/12/23 09:46:47;;;;;;;;;;;;;;;10.85;89.77;100237.28;3606694;39;20393;-64
2022/12/23 09:49:16;;;;;;;22.35;12.43;;;;;;;10.85;89.78;100223.00;3609460;39;20380;-64
2022/12/23 09:51:43;;;;;;;25.83;12.85;;;;;;;10.86;89.60;100208.56;3606873;39;21020;-64
2022/12/23 09:54:22;;;;;;;20.77;12.45;;;;;;;10.88;90.06;100214.69;3610040;39;20063;-64
2022/12/23 09:57:21;;;;;;;21.67;11.60;;;;;;;10.87;89.86;100238.03;3609165;39;20131;-64
2022/12/23 10:00:11;;;;;;;24.33;12.30;;;;;;;10.89;89.76;100232.53;3605858;39;20052;-64
2022/12/23 10:03:14;;;;;;;20.80;12.63;;;;;;;10.87;89.70;100238.03;3604640;39;20382;-65
2022/12/23 10:06:00;;;;;;;23.80;12.82;;;;;;;10.90;90.26;100240.47;3605915;39;20055;-64
2022/12/23 10:08:40;;;;;;;20.90;12.55;;;;;;;10.88;89.76;100234.38;3606610;39;20059;-64
2022/12/23 10:11:19;;;;;;;19.38;12.77;;;;;;;10.90;90.19;100218.97;3608824;39;20057;-64
2022/12/23 10:13:52;;;;;;;26.45;13.63;;;;;;;10.92;89.44;100208.97;3604206;39;20047;-64
2022/12/23 10:16:33;;;;;;;21.75;13.52;;;;;;;10.93;89.74;100199.06;3605248;39;20374;-64
2022/12/23 10:19:19;;;;;;;24.95;13.20;;;;;;;10.93;89.34;100197.25;3606464;39;20051;-65
2022/12/23 10:21:54;;;;;;;19.40;13.13;;;;;;;10.93;89.41;100199.94;3604311;39;20091;-64
2022/12/23 10:24:40;;;;;;;20.58;13.10;;;;;;;10.93;89.32;100194.53;3608156;39;20051;-64
2022/12/23 10:27:25;;;;;;;24.00;13.63;;;;;;;10.93;89.28;100174.88;3606897;39;20062;-64
2022/12/23 10:29:50;;;;;;;21.48;13.00;;;;;;;10.96;nan;100176.47;3608915;39;20067;-64
2022/12/23 10:32:16;;;;;;;19.77;11.73;;;;;;;11.00;88.92;100169.91;3603370;39;20417;-64
2022/12/23 10:35:29;;;;;;;19.52;12.13;;;;;;;10.97;89.24;100160.22;3605935;39;20043;-65
2022/12/23 10:38:08;;;;;;;19.30;11.00;;;;;;;11.04;89.26;100152.59;3605612;39;20053;-64
2022/12/23 10:40:57;;;;;;;17.13;11.00;;;;;;;11.08;89.41;100154.06;3605993;39;20106;-64
2022/12/23 10:43:58;;;;;;;16.48;10.13;;;;;;;11.12;89.10;100153.69;3604355;39;20050;-64
2022/12/23 10:46:49;;;;;;;18.90;10.90;;;;;;;11.14;88.69;100150.91;3604494;39;20051;-62
2022/12/23 10:49:32;;;;;;;19.02;10.95;;;;;;;11.16;88.14;100143.56;3606734;39;20051;-62
2022/12/23 10:52:10;;;;;;;17.57;9.97;;;;;;;11.15;88.25;100131.09;3605358;39;20508;-62
2022/12/23 10:54:37;;;;;;;16.30;9.23;;;;;;;11.11;87.91;100121.56;3606921;39;20109;-63
2022/12/23 10:57:05;;;;;;;15.38;9.02;;;;;;;11.10;87.85;100109.94;3609389;39;20131;-63
2022/12/23 10:59:34;;;;;;;17.48;9.43;;;;;;;11.11;87.57;100113.47;3605429;39;20063;-63
2022/12/23 11:02:32;;;;;;;16.75;9.18;;;;;;;11.11;87.82;100105.41;3607825;39;20059;-63
2022/12/23 11:04:58;;;;;;;16.67;8.52;;;;;;;11.10;87.57;100093.81;3586375;39;20150;-63
2022/12/23 11:07:29;;;;;;;15.80;8.80;;;;;;;11.08;87.84;100081.44;3607615;39;20421;-63
2022/12/23 11:10:12;;;;;;;16.10;8.60;;;;;;;11.11;88.12;100081.22;3606757;39;20424;-64
2022/12/23 11:12:49;;;;;;;19.38;9.60;;;;;;;11.10;87.54;100077.66;3612744;39;20063;-64
2022/12/23 11:15:38;;;;;;;13.85;8.75;;;;;;;11.09;88.16;100069.69;3608719;39;20155;-64
2022/12/23 11:18:11;;;;;;;15.38;9.23;;;;;;;11.10;88.33;100066.91;3612238;39;20144;-64
2022/12/23 11:20:40;;;;;;;17.45;8.38;;;;;;;11.08;88.35;100084.97;3606281;39;20054;-64
2022/12/23 11:23:27;;;;;;;12.90;8.13;;;;;;;11.06;88.40;100075.31;3608291;39;20063;-64
2022/12/23 11:26:08;;;;;;;16.73;7.95;;;;;;;11.07;88.18;100077.03;3603002;39;20082;-63
2022/12/23 11:28:46;;;;;;;16.60;8.23;;;;;;;11.05;87.75;100073.59;3607949;39;20099;-63
2022/12/23 11:31:13;;;;;;;13.63;8.13;;;;;;;11.03;88.09;100059.41;3609415;39;20059;-63
2022/12/23 11:33:54;;;;;;;13.77;8.32;;;;;;;10.73;88.41;99998.94;3605212;39;20054;-64
2022/12/23 11:36:27;;;;;;;14.10;8.80;;;;;;;11.02;88.10;100052.31;3606796;39;20070;-63
2022/12/23 11:38:58;;;;;;;16.27;8.05;;;;;;;11.03;88.65;100052.19;3603807;39;20340;-62
2022/12/23 11:41:32;;;;;;;15.45;9.27;;;;;;;11.02;88.37;100039.72;3605668;39;20399;-63
2022/12/23 11:44:12;;;;;;;16.70;8.52;;;;;;;11.02;88.47;100031.66;3606428;39;20067;-62
2022/12/23 11:46:38;;;;;;;11.93;8.13;;;;;;;11.03;88.68;100021.75;3611850;39;20065;-63
2022/12/23 11:49:25;;;;;;;13.57;6.95;;;;;;;11.00;88.85;100016.59;3609516;39;20050;-64
2022/12/23 11:52:08;;;;;;;14.18;7.00;;;;;;;10.98;88.69;100014.06;3608994;39;20039;-65
2022/12/23 11:54:34;;;;;;;16.77;8.65;;;;;;;10.94;89.00;100001.78;3606772;39;20078;-65
2022/12/23 11:57:07;;;;;;;13.02;6.78;;;;;;;10.96;88.86;100001.69;3605570;39;20386;-65
2022/12/23 11:59:48;;;;;;;16.23;7.00;;;;;;;10.91;89.00;99986.78;3608348;39;20093;-66
2022/12/23 12:02:27;;;;;;;15.50;7.32;;;;;;;10.94;89.42;99980.28;3608506;39;20426;-65
2022/12/23 12:05:39;;;;;;;13.40;7.63;;;;;;;10.94;89.44;99972.22;3607780;39;20386;-65